createdAt,value
2023-03-28T10:10:26.392Z,10.77
2023-03-28T10:12:57.087Z,10.77
2023-03-28T10:15:41.468Z,10.79
2023-03-28T10:18:08.527Z,10.79
2023-03-28T10:20:36.999Z,10.80
2023-03-28T10:23:04.631Z,10.80
2023-03-28T10:25:39.964Z,10.81
2023-03-28T10:28:07.732Z,10.81
2023-03-28T10:30:35.836Z,10.84
2023-03-28T10:33:17.715Z,10.86
2023-03-28T10:35:45.965Z,10.90
2023-03-28T10:38:16.906Z,10.93
2023-03-28T10:40:43.524Z,10.96
2023-03-28T10:43:13.653Z,11.00
2023-03-28T10:45:42.251Z,10.97
2023-03-28T10:48:13.393Z,11.01
2023-03-28T10:50:50.345Z,11.03
2023-03-28T10:53:35.716Z,11.03
2023-03-28T10:56:21.282Z,11.06
2023-03-28T10:58:56.997Z,11.09
2023-03-28T11:01:27.307Z,11.11
2023-03-28T11:04:12.351Z,11.13
2023-03-28T11:06:46.881Z,11.14
2023-03-28T11:09:31.863Z,11.17
2023-03-28T11:11:58.476Z,11.17
2023-03-28T11:14:37.132Z,11.19
2023-03-28T11:17:03.769Z,11.19
2023-03-28T11:19:42.624Z,11.21
2023-03-28T11:22:18.330Z,11.22
2023-03-28T11:25:06.593Z,11.23
2023-03-28T11:27:51.329Z,11.26
2023-03-28T11:30:20.981Z,11.29
2023-03-28T11:33:13.336Z,11.33
2023-03-28T11:35:51.762Z,11.36
2023-03-28T11:38:22.527Z,11.41
2023-03-28T11:41:01.650Z,11.45
2023-03-28T11:43:51.119Z,11.53
2023-03-28T11:46:27.324Z,11.63
2023-03-28T11:49:16.327Z,11.75
2023-03-28T11:51:56.340Z,11.89
2023-03-28T11:54:27.648Z,11.99
2023-03-28T11:57:01.321Z,12.08
2023-03-28T11:59:28.183Z,12.16
2023-03-28T12:02:02.432Z,12.24
2023-03-28T12:04:33.593Z,12.30
2023-03-28T12:07:03.233Z,12.37
2023-03-28T12:09:41.427Z,12.50
2023-03-28T12:12:10.984Z,12.63
2023-03-28T12:14:56.983Z,12.73
2023-03-28T12:17:27.136Z,12.83
2023-03-28T12:19:53.984Z,12.94
2023-03-28T12:22:40.481Z,12.97
2023-03-28T12:25:24.761Z,13.11
2023-03-28T12:28:11.244Z,13.18
2023-03-28T12:30:43.163Z,13.21
2023-03-28T12:33:24.468Z,13.23
2023-03-28T12:36:10.813Z,13.25
2023-03-28T12:38:42.564Z,13.28
2023-03-28T12:41:11.961Z,13.29
2023-03-28T12:43:41.545Z,13.30
2023-03-28T12:46:08.882Z,13.33
2023-03-28T12:48:35.555Z,13.33
2023-03-28T12:51:04.864Z,13.33
2023-03-28T12:53:32.010Z,13.35
2023-03-28T12:55:58.609Z,13.37
2023-03-28T12:58:29.083Z,13.38
2023-03-28T13:00:58.776Z,13.43
2023-03-28T13:03:28.664Z,13.48
2023-03-28T13:06:14.381Z,13.53
2023-03-28T13:08:59.880Z,13.53
2023-03-28T13:11:29.801Z,13.56
2023-03-28T13:13:58.070Z,13.56
2023-03-28T13:16:37.396Z,13.53
2023-03-28T13:19:09.062Z,13.49
2023-03-28T13:21:41.958Z,13.45
2023-03-28T13:24:28.043Z,13.43
2023-03-28T13:26:58.811Z,13.40
2023-03-28T13:29:42.541Z,13.39
2023-03-28T13:32:12.435Z,13.41
2023-03-28T13:34:38.979Z,13.44
2023-03-28T13:37:22.677Z,13.45
2023-03-28T13:39:51.007Z,13.45
2023-03-28T13:42:46.816Z,13.46
2023-03-28T13:45:20.485Z,13.45
2023-03-28T13:47:50.250Z,13.48
2023-03-28T13:50:23.160Z,13.51
2023-03-28T13:52:49.763Z,13.54
2023-03-28T13:55:24.129Z,13.59
2023-03-28T13:57:51.669Z,13.68
2023-03-28T14:00:20.779Z,13.77
2023-03-28T14:02:48.755Z,13.82
2023-03-28T14:05:20.195Z,13.85
2023-03-28T14:07:46.879Z,13.89
2023-03-28T14:10:30.451Z,13.91
2023-03-28T14:12:59.081Z,13.95
2023-03-28T14:15:28.998Z,13.97
2023-03-28T14:17:57.105Z,14.01
2023-03-28T14:20:24.047Z,14.02
2023-03-28T14:22:59.837Z,14.04
2023-03-28T14:25:27.949Z,14.04
2023-03-28T14:27:56.007Z,14.05
2023-03-28T14:30:25.647Z,14.07
2023-03-28T14:32:59.208Z,14.09
2023-03-28T14:35:29.694Z,14.13
2023-03-28T14:37:57.548Z,14.20
2023-03-28T14:40:24.182Z,14.31
2023-03-28T14:42:55.973Z,14.37
2023-03-28T14:45:24.779Z,14.48
2023-03-28T14:47:51.844Z,14.51
2023-03-28T14:50:20.473Z,14.53
2023-03-28T14:52:47.562Z,14.53
2023-03-28T14:55:24.138Z,14.52
2023-03-28T14:57:52.278Z,14.51
2023-03-28T15:00:22.672Z,14.53
2023-03-28T15:02:49.524Z,14.53
2023-03-28T15:05:17.777Z,14.50
2023-03-28T15:07:44.925Z,14.49
2023-03-28T15:10:20.708Z,14.46
2023-03-28T15:12:51.525Z,14.44
2023-03-28T15:15:24.170Z,14.42
2023-03-28T15:17:51.959Z,14.42
2023-03-28T15:20:21.228Z,14.42
2023-03-28T15:22:50.213Z,14.38
2023-03-28T15:25:17.064Z,14.37
2023-03-28T15:27:48.151Z,14.33
2023-03-28T15:30:16.747Z,14.29
2023-03-28T15:32:43.686Z,14.25
2023-03-28T15:35:24.313Z,14.21
2023-03-28T15:37:52.349Z,14.18
2023-03-28T15:40:22.486Z,14.15
2023-03-28T15:42:50.090Z,14.10
2023-03-28T15:45:19.601Z,14.11
2023-03-28T15:47:47.215Z,14.10
2023-03-28T15:50:16.854Z,14.11
2023-03-28T15:52:43.394Z,14.16
2023-03-28T15:55:18.647Z,14.16
2023-03-28T15:57:47.903Z,14.15
2023-03-28T16:00:37.568Z,14.12
2023-03-28T16:03:25.490Z,14.07
2023-03-28T16:06:09.856Z,14.00
2023-03-28T16:08:39.599Z,13.94
2023-03-28T16:11:07.062Z,13.91
2023-03-28T16:13:34.206Z,13.83
2023-03-28T16:16:01.460Z,13.77
2023-03-28T16:18:28.282Z,13.74
2023-03-28T16:20:54.775Z,13.68
2023-03-28T16:23:21.259Z,13.60
2023-03-28T16:25:47.930Z,13.58
2023-03-28T16:28:17.402Z,13.53
2023-03-28T16:30:44.202Z,13.49
2023-03-28T16:33:11.020Z,13.46
2023-03-28T16:35:37.868Z,13.44
2023-03-28T16:38:04.416Z,13.40
2023-03-28T16:40:31.396Z,13.36
2023-03-28T16:42:58.012Z,13.34
2023-03-28T16:45:25.053Z,13.32
2023-03-28T16:47:52.489Z,13.29
2023-03-28T16:50:19.235Z,13.22
2023-03-28T16:52:45.723Z,13.21
2023-03-28T16:55:13.544Z,13.18
2023-03-28T16:57:40.621Z,13.14
2023-03-28T17:00:09.231Z,13.10
2023-03-28T17:02:35.967Z,13.05
2023-03-28T17:05:02.582Z,13.01
2023-03-28T17:07:29.132Z,12.97
2023-03-28T17:09:55.768Z,12.91
2023-03-28T17:12:24.075Z,12.89
2023-03-28T17:14:51.423Z,12.84
2023-03-28T17:17:21.439Z,12.82
2023-03-28T17:19:48.111Z,12.77
2023-03-28T17:22:14.776Z,12.74
2023-03-28T17:24:41.363Z,12.71
2023-03-28T17:27:09.916Z,12.68
2023-03-28T17:29:36.432Z,12.65
2023-03-28T17:32:03.261Z,12.62
2023-03-28T17:34:32.105Z,12.62
2023-03-28T17:36:59.089Z,12.57
2023-03-28T17:39:25.727Z,12.54
2023-03-28T17:41:53.398Z,12.50
2023-03-28T17:44:20.576Z,12.47
2023-03-28T17:46:47.971Z,12.44
2023-03-28T17:49:16.887Z,12.40
2023-03-28T17:51:45.191Z,12.37
2023-03-28T17:54:12.246Z,12.34
2023-03-28T17:56:39.409Z,12.31
2023-03-28T17:59:06.406Z,12.28
2023-03-28T18:01:33.008Z,12.25
2023-03-28T18:03:59.770Z,12.24
2023-03-28T18:06:26.482Z,12.22
2023-03-28T18:08:53.096Z,12.20
2023-03-28T18:11:20.238Z,12.20
2023-03-28T18:13:47.019Z,12.19
2023-03-28T18:16:14.487Z,12.17
2023-03-28T18:18:41.631Z,12.16
2023-03-28T18:21:08.693Z,12.14
2023-03-28T18:23:36.048Z,12.13
2023-03-28T18:26:03.007Z,12.11
2023-03-28T18:28:29.759Z,12.08
2023-03-28T18:30:57.442Z,12.05
2023-03-28T18:33:24.126Z,12.02
2023-03-28T18:35:50.804Z,12.00
2023-03-28T18:38:17.925Z,11.97
2023-03-28T18:40:44.599Z,11.95
2023-03-28T18:43:11.157Z,11.91
2023-03-28T18:45:37.827Z,11.90
2023-03-28T18:48:04.751Z,11.87
2023-03-28T18:50:31.580Z,11.85
2023-03-28T18:52:58.227Z,11.82
2023-03-28T18:55:24.989Z,11.79
2023-03-28T18:57:52.855Z,11.77
2023-03-28T19:00:19.973Z,11.73
2023-03-28T19:02:47.175Z,11.70
2023-03-28T19:05:15.439Z,11.70
2023-03-28T19:07:46.025Z,11.68
2023-03-28T19:10:13.584Z,11.69
2023-03-28T19:12:41.459Z,11.65
2023-03-28T19:15:08.902Z,11.64
2023-03-28T19:17:36.606Z,11.62
2023-03-28T19:20:07.571Z,11.62
2023-03-28T19:22:35.249Z,11.60
2023-03-28T19:25:01.878Z,11.59
2023-03-28T19:27:28.386Z,11.58
2023-03-28T19:30:01.935Z,11.56
2023-03-28T19:32:30.642Z,11.55
2023-03-28T19:34:57.474Z,11.52
2023-03-28T19:37:24.050Z,11.51
2023-03-28T19:39:50.570Z,11.49
2023-03-28T19:42:18.264Z,11.46
2023-03-28T19:44:44.869Z,11.45
2023-03-28T19:47:11.713Z,11.43
2023-03-28T19:49:38.912Z,11.42
2023-03-28T19:52:05.868Z,11.41
2023-03-28T19:54:32.509Z,11.39
2023-03-28T19:56:59.142Z,11.38
2023-03-28T19:59:25.997Z,11.36
2023-03-28T20:01:52.548Z,11.34
2023-03-28T20:04:21.026Z,11.33
2023-03-28T20:06:48.935Z,11.31
2023-03-28T20:09:15.628Z,11.29
2023-03-28T20:11:42.242Z,11.28
2023-03-28T20:14:09.604Z,11.26
2023-03-28T20:16:36.302Z,11.24
2023-03-28T20:19:03.115Z,11.22
2023-03-28T20:21:29.783Z,11.21
2023-03-28T20:23:58.535Z,11.19
2023-03-28T20:26:27.249Z,11.18
2023-03-28T20:28:57.039Z,11.17
2023-03-28T20:31:23.725Z,11.16
2023-03-28T20:33:52.110Z,11.14
2023-03-28T20:36:18.754Z,11.13
2023-03-28T20:38:45.341Z,11.14
2023-03-28T20:41:12.989Z,11.11
2023-03-28T20:43:40.994Z,11.10
2023-03-28T20:46:07.866Z,11.10
2023-03-28T20:48:34.918Z,11.08
2023-03-28T20:51:05.992Z,11.06
2023-03-28T20:53:35.717Z,11.00
2023-03-28T20:56:03.629Z,11.02
2023-03-28T20:58:30.727Z,11.01
2023-03-28T21:00:58.377Z,10.99
2023-03-28T21:03:39.319Z,10.97
2023-03-28T21:06:06.779Z,10.96
2023-03-28T21:08:36.476Z,10.94
2023-03-28T21:11:03.887Z,10.93
2023-03-28T21:13:30.557Z,10.92
2023-03-28T21:15:57.591Z,10.92
2023-03-28T21:18:25.095Z,10.91
2023-03-28T21:20:54.272Z,10.91
2023-03-28T21:23:21.001Z,10.89
2023-03-28T21:25:52.106Z,10.88
2023-03-28T21:28:18.993Z,10.87
2023-03-28T21:30:56.173Z,10.85
2023-03-28T21:33:22.745Z,10.84
2023-03-28T21:35:52.506Z,10.84
2023-03-28T21:38:19.423Z,10.81
2023-03-28T21:40:48.960Z,10.80
2023-03-28T21:43:16.157Z,10.79
2023-03-28T21:45:46.541Z,10.79
2023-03-28T21:48:13.435Z,10.77
2023-03-28T21:50:41.083Z,10.76
2023-03-28T21:53:08.708Z,10.74
2023-03-28T21:55:35.783Z,10.74
2023-03-28T21:58:02.611Z,10.74
2023-03-28T22:00:29.259Z,10.71
2023-03-28T22:02:56.207Z,10.70
2023-03-28T22:05:29.744Z,10.66
2023-03-28T22:07:56.836Z,10.64
2023-03-28T22:10:26.742Z,10.67
2023-03-28T22:12:54.026Z,10.66
2023-03-28T22:15:20.538Z,10.65
2023-03-28T22:17:47.281Z,10.64
2023-03-28T22:20:14.531Z,10.65
2023-03-28T22:22:45.242Z,10.64
2023-03-28T22:25:14.233Z,10.63
2023-03-28T22:27:40.763Z,10.63
2023-03-28T22:30:10.363Z,10.63
2023-03-28T22:32:38.950Z,10.64
2023-03-28T22:35:05.931Z,10.62
2023-03-28T22:37:33.320Z,10.64
2023-03-28T22:39:59.865Z,10.64
2023-03-28T22:42:26.747Z,10.64
2023-03-28T22:44:53.348Z,10.65
2023-03-28T22:47:19.862Z,10.63
2023-03-28T22:49:46.374Z,10.63
2023-03-28T22:52:13.780Z,10.63
2023-03-28T22:54:42.753Z,10.60
2023-03-28T22:57:09.796Z,10.62
2023-03-28T22:59:36.666Z,10.64
2023-03-28T23:02:03.913Z,10.63
2023-03-28T23:04:33.188Z,10.64
2023-03-28T23:06:59.718Z,10.61
2023-03-28T23:09:27.848Z,10.59
2023-03-28T23:11:55.189Z,10.61
2023-03-28T23:14:22.283Z,10.64
2023-03-28T23:16:49.076Z,10.64
2023-03-28T23:19:16.512Z,10.65
2023-03-28T23:21:43.483Z,10.64
2023-03-28T23:24:10.204Z,10.66
2023-03-28T23:26:36.739Z,10.62
2023-03-28T23:29:05.352Z,10.66
2023-03-28T23:31:32.065Z,10.69
2023-03-28T23:33:58.721Z,10.66
2023-03-28T23:36:26.259Z,10.69
2023-03-28T23:38:53.209Z,10.70
2023-03-28T23:41:19.675Z,10.69
2023-03-28T23:43:46.366Z,10.70
2023-03-28T23:46:12.957Z,10.69
2023-03-28T23:48:39.494Z,10.70
2023-03-28T23:51:06.295Z,10.71
2023-03-28T23:53:32.821Z,10.71
2023-03-28T23:55:59.394Z,10.71
2023-03-28T23:58:26.102Z,10.74
